Time;durP1;ratioP1;P1;durP2;ratioP2;P2;SDS_P1;SDS_P2;PMS_P1;PMS_P2;Temp;Humidity;BMP_temperature;BMP_pressure;BME280_temperature;BME280_humidity;BME280_pressure;Samples;Min_cycle;Max_cycle;Signal;HPM_P1;HPM_P2
2023/05/12 00:01:15;;;;;;;10.20;6.70;;;;;;;13.78;100.00;101561.69;5025760;28;20136;-69
2023/05/12 00:03:42;;;;;;;10.13;6.97;;;;;;;13.75;100.00;101562.84;5028080;28;20057;-69
2023/05/12 00:06:09;;;;;;;8.32;5.57;;;;;;;13.71;100.00;101566.75;5019000;28;20084;-69
2023/05/12 00:08:35;;;;;;;7.57;5.35;;;;;;;13.72;100.00;101557.03;5026956;28;20132;-69
2023/05/12 00:11:02;;;;;;;9.23;6.10;;;;;;;13.78;100.00;101554.66;5017090;28;20061;-69
2023/05/12 00:13:29;;;;;;;8.63;6.13;;;;;;;13.74;100.00;101562.97;5025410;28;20483;-68
2023/05/12 00:15:57;;;;;;;9.55;5.65;;;;;;;13.69;100.00;101562.63;5030727;28;20045;-68
2023/05/12 00:18:25;;;;;;;10.38;6.88;;;;;;;13.60;100.00;101554.63;5023051;28;20049;-68
2023/05/12 00:20:53;;;;;;;9.90;6.38;;;;;;;13.58;100.00;101561.00;5029727;28;20414;-68
2023/05/12 00:23:21;;;;;;;10.20;6.25;;;;;;;13.55;100.00;101561.31;5019530;28;20103;-67
2023/05/12 00:25:48;;;;;;;9.75;6.68;;;;;;;13.53;100.00;101556.19;5024982;28;20057;-68
2023/05/12 00:28:16;;;;;;;9.43;6.88;;;;;;;13.54;100.00;101559.63;5020909;28;20463;-68
2023/05/12 00:30:42;;;;;;;9.65;7.20;;;;;;;13.48;100.00;101552.34;5027632;28;20064;-68
2023/05/12 00:33:09;;;;;;;10.50;7.22;;;;;;;13.46;100.00;101544.56;5023977;28;20041;-67
2023/05/12 00:35:35;;;;;;;8.75;6.57;;;;;;;13.45;100.00;101549.00;5016103;28;20453;-67
2023/05/12 00:38:02;;;;;;;9.38;6.53;;;;;;;13.43;100.00;101542.25;5026674;28;20064;-67
2023/05/12 00:40:28;;;;;;;10.85;6.38;;;;;;;13.42;100.00;101541.38;5021649;28;20407;-67
2023/05/12 00:42:55;;;;;;;8.73;5.80;;;;;;;13.41;100.00;101541.56;5024119;28;20054;-67
2023/05/12 00:45:22;;;;;;;11.32;6.03;;;;;;;13.38;100.00;101539.22;5014389;28;20056;-67
2023/05/12 00:47:51;;;;;;;8.50;5.60;;;;;;;13.35;100.00;101537.69;5022570;28;20064;-67
2023/05/12 00:50:17;;;;;;;7.38;5.25;;;;;;;13.40;100.00;101537.25;5024155;28;20046;-67
2023/05/12 00:52:47;;;;;;;8.55;5.80;;;;;;;13.35;100.00;101535.06;5020750;28;20847;-67
2023/05/12 00:55:14;;;;;;;9.25;5.82;;;;;;;13.35;100.00;101539.50;5018096;28;20097;-67
2023/05/12 00:57:41;;;;;;;6.60;5.35;;;;;;;13.34;100.00;101528.13;5018997;28;20052;-68
2023/05/12 01:00:09;;;;;;;9.90;5.32;;;;;;;13.35;100.00;101536.84;5024077;28;20489;-67
2023/05/12 01:02:36;;;;;;;10.30;4.82;;;;;;;13.34;100.00;101533.41;5023658;28;20466;-70
2023/05/12 01:05:04;;;;;;;8.77;5.25;;;;;;;13.34;100.00;101536.03;5026100;28;20068;-70
2023/05/12 01:07:31;;;;;;;6.82;4.22;;;;;;;13.33;100.00;101523.84;5026801;28;20058;-69
2023/05/12 01:09:58;;;;;;;6.65;4.43;;;;;;;13.30;100.00;101521.50;5022411;28;20084;-69
2023/05/12 01:12:25;;;;;;;5.65;3.60;;;;;;;13.30;100.00;101523.31;5019985;28;20104;-69
2023/05/12 01:14:53;;;;;;;5.22;3.53;;;;;;;13.28;100.00;101520.78;5018422;28;20060;-69
2023/05/12 01:17:28;;;;;;;4.85;3.03;;;;;;;13.23;100.00;101512.47;5015970;28;20053;-69
2023/05/12 01:20:00;;;;;;;5.22;3.25;;;;;;;13.24;100.00;101507.06;5019583;28;20724;-69
2023/05/12 01:22:30;;;;;;;5.55;2.83;;;;;;;13.28;100.00;101512.06;5024969;28;20049;-68
2023/05/12 01:24:59;;;;;;;4.88;2.80;;;;;;;13.28;100.00;101510.25;5029612;28;20050;-69
2023/05/12 01:27:28;;;;;;;3.63;2.50;;;;;;;13.28;100.00;101510.25;5015852;28;20490;-68
2023/05/12 01:30:00;;;;;;;4.15;2.33;;;;;;;13.29;100.00;101506.66;5016239;28;20138;-68
2023/05/12 01:32:27;;;;;;;3.58;2.20;;;;;;;13.29;100.00;101511.91;5005488;28;20065;-68
2023/05/12 01:34:53;;;;;;;3.25;2.10;;;;;;;13.30;100.00;101510.13;5025151;28;20056;-68
2023/05/12 01:37:20;;;;;;;5.35;2.10;;;;;;;13.29;100.00;101516.34;5022321;28;20049;-68
2023/05/12 01:39:46;;;;;;;3.53;2.30;;;;;;;13.22;100.00;101506.38;5019647;28;20045;-68
2023/05/12 01:42:13;;;;;;;3.85;2.28;;;;;;;13.20;100.00;101510.97;5021261;28;20058;-68
2023/05/12 01:44:39;;;;;;;3.25;2.10;;;;;;;13.21;100.00;101512.66;5015853;28;20085;-68
2023/05/12 01:47:08;;;;;;;2.85;2.13;;;;;;;13.22;100.00;101514.28;5023295;28;20137;-67
2023/05/12 01:49:35;;;;;;;4.15;1.98;;;;;;;13.20;100.00;101505.72;5022909;28;20057;-68
2023/05/12 01:52:02;;;;;;;3.17;2.10;;;;;;;13.15;100.00;101504.47;5024960;28;20049;-68
2023/05/12 01:54:28;;;;;;;7.75;2.40;;;;;;;13.05;100.00;101504.53;5027285;28;20329;-68
2023/05/12 01:56:55;;;;;;;5.30;3.10;;;;;;;13.05;100.00;101502.75;5021583;28;20057;-68
2023/05/12 01:59:21;;;;;;;4.28;2.60;;;;;;;13.01;100.00;101503.16;5035779;28;20057;-68
2023/05/12 02:01:48;;;;;;;4.72;2.65;;;;;;;13.11;100.00;101511.03;5020294;28;20550;-68
2023/05/12 02:04:14;;;;;;;5.85;2.85;;;;;;;13.17;100.00;101508.66;5029019;28;20041;-68
2023/05/12 02:06:41;;;;;;;5.95;3.55;;;;;;;13.10;100.00;101497.03;5022873;28;20054;-68
2023/05/12 02:09:08;;;;;;;4.15;2.90;;;;;;;13.16;100.00;101500.88;5033543;28;20042;-68
2023/05/12 02:11:35;;;;;;;7.38;4.00;;;;;;;13.15;100.00;101499.22;5041045;28;20053;-68
2023/05/12 02:14:02;;;;;;;6.93;4.03;;;;;;;13.12;100.00;101499.53;5036805;28;20049;-68
2023/05/12 02:16:28;;;;;;;7.95;4.95;;;;;;;13.12;100.00;101497.72;5043136;28;20067;-68
2023/05/12 02:18:55;;;;;;;9.73;5.18;;;;;;;13.16;100.00;101498.25;5027150;28;20041;-69
2023/05/12 02:21:21;;;;;;;7.68;4.38;;;;;;;13.15;100.00;101499.22;5019989;28;20080;-68
2023/05/12 02:23:48;;;;;;;9.35;5.32;;;;;;;13.13;100.00;101498.53;5028197;28;20042;-69
2023/05/12 02:26:14;;;;;;;9.95;5.38;;;;;;;13.15;100.00;101493.94;5014339;28;20413;-68
2023/05/12 02:28:40;;;;;;;9.40;5.72;;;;;;;13.15;100.00;101497.44;5031788;28;20050;-68
2023/05/12 02:31:07;;;;;;;11.00;6.15;;;;;;;13.10;100.00;101499.66;5022809;28;20194;-68
2023/05/12 02:33:34;;;;;;;11.02;6.53;;;;;;;13.09;100.00;101500.63;5024869;28;20428;-69
2023/05/12 02:36:00;;;;;;;9.65;6.15;;;;;;;13.12;100.00;101496.91;5021024;28;20848;-69
2023/05/12 02:38:27;;;;;;;14.30;7.78;;;;;;;13.08;100.00;101491.09;5020493;28;20046;-69
2023/05/12 02:40:54;;;;;;;12.88;6.35;;;;;;;13.11;100.00;101495.22;5025919;28;20119;-69
2023/05/12 02:43:20;;;;;;;11.70;6.82;;;;;;;13.14;100.00;101489.66;5012014;28;20069;-69
2023/05/12 02:45:46;;;;;;;12.40;7.65;;;;;;;13.15;100.00;101493.94;5018109;28;20061;-68
2023/05/12 02:48:13;;;;;;;13.20;7.88;;;;;;;13.14;100.00;101476.50;5017218;28;20146;-68
2023/05/12 02:50:39;;;;;;;13.70;8.07;;;;;;;13.17;100.00;101486.72;5030526;28;20046;-69
2023/05/12 02:53:06;;;;;;;14.45;8.40;;;;;;;13.18;100.00;101478.69;5030111;28;20136;-69
2023/05/12 02:55:32;;;;;;;14.27;8.35;;;;;;;13.19;100.00;101483.00;5024350;28;20060;-69
2023/05/12 02:57:59;;;;;;;13.88;8.35;;;;;;;13.19;100.00;101485.63;5028332;28;20050;-69
2023/05/12 03:00:25;;;;;;;16.05;9.57;;;;;;;13.15;100.00;101475.50;5021290;28;20452;-69
2023/05/12 03:02:52;;;;;;;16.13;9.32;;;;;;;13.12;100.00;101479.28;5020790;28;20049;-69
2023/05/12 03:05:18;;;;;;;13.85;8.25;;;;;;;13.20;100.00;101481.19;5014281;28;20057;-69
2023/05/12 03:07:48;;;;;;;12.73;8.55;;;;;;;13.20;100.00;101471.47;5036873;28;20077;-69
2023/05/12 03:10:16;;;;;;;15.52;9.10;;;;;;;13.15;100.00;101473.72;5031848;28;20050;-69
2023/05/12 03:12:43;;;;;;;17.10;10.15;;;;;;;13.16;100.00;101474.53;5036142;28;20115;-69
2023/05/12 03:15:10;;;;;;;15.32;10.23;;;;;;;13.12;100.00;101471.38;5050395;28;20049;-69
2023/05/12 03:17:36;;;;;;;16.42;10.35;;;;;;;13.19;100.00;101472.47;5012789;28;20048;-69
2023/05/12 03:20:03;;;;;;;16.25;9.95;;;;;;;13.22;100.00;101472.13;5042081;28;20087;-69
2023/05/12 03:22:29;;;;;;;15.00;10.45;;;;;;;13.19;100.00;101463.69;5032935;28;20045;-69
2023/05/12 03:24:56;;;;;;;25.48;13.27;;;;;;;13.18;100.00;101473.41;5026918;28;20777;-69
2023/05/12 03:27:22;;;;;;;18.92;11.02;;;;;;;13.16;100.00;101464.84;5029047;28;20068;-68
2023/05/12 03:29:49;;;;;;;17.92;11.52;;;;;;;13.17;100.00;101476.19;5019296;28;20468;-69
2023/05/12 03:32:15;;;;;;;20.73;11.70;;;;;;;13.14;100.00;101473.88;5025932;28;20049;-69
2023/05/12 03:34:42;;;;;;;20.30;12.73;;;;;;;13.17;100.00;101476.19;5025398;28;20057;-69
2023/05/12 03:37:08;;;;;;;15.52;9.57;;;;;;;13.18;100.00;101462.88;5029958;28;20410;-69
2023/05/12 03:39:34;;;;;;;20.35;12.48;;;;;;;13.19;100.00;101467.19;5024747;28;20107;-68
2023/05/12 03:42:01;;;;;;;19.35;12.23;;;;;;;13.28;100.00;101476.00;5022117;28;20050;-69
2023/05/12 03:44:28;;;;;;;24.65;13.52;;;;;;;13.26;100.00;101473.50;5029083;28;20068;-68
2023/05/12 03:46:54;;;;;;;23.27;13.38;;;;;;;13.33;100.00;101472.94;5008612;28;20127;-69
2023/05/12 03:49:21;;;;;;;22.90;13.55;;;;;;;13.31;100.00;101470.47;5028933;28;20045;-69
2023/05/12 03:51:47;;;;;;;19.15;11.18;;;;;;;13.31;100.00;101475.75;5028483;28;20060;-68
2023/05/12 03:54:13;;;;;;;23.60;13.80;;;;;;;13.35;100.00;101481.53;5022704;28;20057;-69
2023/05/12 03:56:40;;;;;;;24.73;14.70;;;;;;;13.31;100.00;101482.78;5019766;28;20064;-68
2023/05/12 03:59:06;;;;;;;21.58;13.02;;;;;;;13.34;100.00;101488.59;5021032;28;20050;-68
2023/05/12 04:01:33;;;;;;;24.15;14.50;;;;;;;13.36;100.00;101489.28;5020955;28;20077;-68
2023/05/12 04:03:59;;;;;;;22.10;13.60;;;;;;;13.36;100.00;101484.00;5022896;28;20057;-68
2023/05/12 04:06:26;;;;;;;26.27;16.45;;;;;;;13.38;100.00;101483.88;5020186;28;20045;-68
2023/05/12 04:08:52;;;;;;;28.63;15.15;;;;;;;13.46;100.00;101486.59;5032751;28;20059;-69
2023/05/12 04:11:19;;;;;;;23.58;13.45;;;;;;;13.44;100.00;101486.72;5015157;28;20054;-68
2023/05/12 04:13:45;;;;;;;27.20;16.08;;;;;;;13.44;100.00;101488.53;5028694;28;20053;-68
2023/05/12 04:16:12;;;;;;;27.45;16.83;;;;;;;13.48;100.00;101489.06;5020586;28;20057;-68
2023/05/12 04:18:38;;;;;;;28.70;16.55;;;;;;;13.49;100.00;101493.38;5029082;28;20490;-68
2023/05/12 04:21:05;;;;;;;29.95;16.02;;;;;;;13.51;100.00;101484.34;5022525;28;20053;-69
2023/05/12 04:23:31;;;;;;;24.48;15.25;;;;;;;13.56;100.00;101482.06;5024373;28;20062;-68
2023/05/12 04:25:57;;;;;;;29.00;16.83;;;;;;;13.59;100.00;101480.97;5024513;28;20056;-68
2023/05/12 04:28:24;;;;;;;27.70;17.00;;;;;;;13.55;100.00;101480.44;5034775;28;20057;-68
2023/05/12 04:30:50;;;;;;;26.58;15.35;;;;;;;13.57;100.00;101489.00;5022083;28;20100;-68
2023/05/12 04:33:17;;;;;;;28.17;17.38;;;;;;;13.57;100.00;101489.00;5021724;28;20056;-68
2023/05/12 04:35:43;;;;;;;27.73;17.38;;;;;;;13.58;100.00;101500.38;5028770;28;20103;-68
2023/05/12 04:38:09;;;;;;;31.70;17.95;;;;;;;13.52;100.00;101495.69;5013424;28;20080;-68
2023/05/12 04:40:36;;;;;;;31.85;18.58;;;;;;;13.57;100.00;101504.81;5023817;28;20140;-68
2023/05/12 04:43:02;;;;;;;23.35;14.65;;;;;;;13.65;100.00;101497.00;5027798;28;20887;-68
2023/05/12 04:45:29;;;;;;;28.13;17.98;;;;;;;13.62;100.00;101497.31;5020432;28;20045;-68
2023/05/12 04:47:55;;;;;;;32.05;19.20;;;;;;;13.67;100.00;101501.31;5021623;28;20453;-68
2023/05/12 04:50:22;;;;;;;33.90;19.65;;;;;;;13.68;100.00;101503.78;5021719;28;20141;-69
2023/05/12 04:52:48;;;;;;;34.83;20.70;;;;;;;13.68;100.00;101495.88;5021660;28;20074;-68
2023/05/12 04:55:15;;;;;;;38.53;21.35;;;;;;;13.72;100.00;101499.03;5023595;28;20128;-68
2023/05/12 04:57:41;;;;;;;33.20;20.42;;;;;;;13.75;100.00;101501.38;5019777;28;20839;-68
2023/05/12 05:00:08;;;;;;;30.20;18.95;;;;;;;13.78;100.00;101507.19;5023175;28;20050;-68
2023/05/12 05:02:35;;;;;;;32.72;21.85;;;;;;;13.81;100.00;101514.78;5018867;28;20049;-68
2023/05/12 05:05:01;;;;;;;33.45;20.95;;;;;;;13.86;100.00;101514.34;5020149;28;20084;-68
2023/05/12 05:07:28;;;;;;;31.80;19.38;;;;;;;13.89;100.00;101513.19;5014707;28;20545;-68
2023/05/12 05:09:55;;;;;;;35.28;21.17;;;;;;;13.93;100.00;101517.19;5020187;28;20052;-68
2023/05/12 05:12:21;;;;;;;35.75;20.45;;;;;;;13.98;100.00;101521.03;5024878;28;20042;-68
2023/05/12 05:14:47;;;;;;;32.75;19.73;;;;;;;14.02;100.00;101527.66;5019449;28;20049;-68
2023/05/12 05:17:14;;;;;;;31.63;19.13;;;;;;;14.02;100.00;101535.56;5024605;28;20076;-68
2023/05/12 05:19:40;;;;;;;32.13;20.52;;;;;;;14.01;100.00;101533.09;5024330;28;20057;-68
2023/05/12 05:22:24;;;;;;;24.67;15.18;;;;;;;14.07;100.00;101540.38;5012479;28;20335;-68
2023/05/12 05:24:50;;;;;;;30.65;18.23;;;;;;;14.09;100.00;101546.34;5019382;28;20045;-68
2023/05/12 05:27:17;;;;;;;29.15;18.40;;;;;;;14.14;100.00;101548.53;5024515;28;20049;-68
2023/05/12 05:29:44;;;;;;;29.80;18.85;;;;;;;14.19;100.00;101541.81;5026250;28;20049;-69
2023/05/12 05:32:10;;;;;;;32.05;20.38;;;;;;;14.25;100.00;101545.66;5020095;28;20215;-68
2023/05/12 05:34:37;;;;;;;32.10;20.38;;;;;;;14.25;100.00;101553.59;5015126;28;20072;-69
2023/05/12 05:37:03;;;;;;;30.10;18.92;;;;;;;14.22;100.00;101557.34;5010130;28;20046;-69
2023/05/12 05:39:30;;;;;;;31.48;19.83;;;;;;;14.23;100.00;101563.47;5025047;28;20050;-68
2023/05/12 05:41:56;;;;;;;27.30;18.10;;;;;;;14.30;100.00;101563.69;5018172;28;20048;-69
2023/05/12 05:44:24;;;;;;;33.65;20.38;;;;;;;14.34;100.00;101563.19;5022218;28;20203;-68
2023/05/12 05:46:50;;;;;;;30.38;20.13;;;;;;;14.36;100.00;101563.06;5020179;28;20128;-68
2023/05/12 05:49:17;;;;;;;26.98;17.92;;;;;;;14.44;100.00;101571.03;5010102;28;20087;-68
2023/05/12 05:51:44;;;;;;;31.60;20.52;;;;;;;14.45;100.00;101567.44;5021914;28;20215;-68
2023/05/12 05:54:10;;;;;;;29.40;19.70;;;;;;;14.51;100.00;101572.09;5018652;28;20061;-68
2023/05/12 05:56:37;;;;;;;32.42;19.50;;;;;;;14.55;100.00;101575.25;5020734;28;20045;-68
2023/05/12 05:59:04;;;;;;;30.98;20.55;;;;;;;14.58;100.00;101575.81;5024504;28;20058;-68
2023/05/12 06:01:31;;;;;;;29.95;19.95;;;;;;;14.62;100.00;101578.94;5019220;28;20064;-68
2023/05/12 06:03:57;;;;;;;31.80;20.90;;;;;;;14.62;100.00;101579.78;5020632;28;20095;-68
2023/05/12 06:06:24;;;;;;;29.60;19.65;;;;;;;14.63;100.00;101586.72;5014501;28;20136;-68
2023/05/12 06:08:51;;;;;;;25.55;17.55;;;;;;;14.68;100.00;101588.91;5025754;28;20049;-68
2023/05/12 06:11:17;;;;;;;31.30;19.90;;;;;;;14.68;100.00;101596.84;5019046;28;20049;-69
2023/05/12 06:13:44;;;;;;;30.05;20.80;;;;;;;14.67;100.00;101599.63;5020950;28;20088;-68
2023/05/12 06:16:10;;;;;;;32.63;20.77;;;;;;;14.71;100.00;101606.25;5024610;28;20063;-69
2023/05/12 06:18:37;;;;;;;29.67;20.60;;;;;;;14.68;100.00;101604.75;5010308;28;20092;-68
2023/05/12 06:21:04;;;;;;;28.00;19.23;;;;;;;14.75;100.00;101611.06;5025051;28;20107;-69
2023/05/12 06:23:31;;;;;;;31.25;20.65;;;;;;;14.80;100.00;101615.91;5017974;28;20058;-69
2023/05/12 06:25:57;;;;;;;32.15;21.92;;;;;;;14.77;100.00;101611.72;5024138;28;20041;-68
2023/05/12 06:28:24;;;;;;;32.40;20.70;;;;;;;14.81;100.00;101613.09;5029148;28;20056;-68
2023/05/12 06:30:50;;;;;;;30.58;20.13;;;;;;;14.92;100.00;101613.84;5015027;28;20057;-68
2023/05/12 06:33:17;;;;;;;29.10;20.08;;;;;;;14.95;100.00;101616.97;5018487;28;20057;-68
2023/05/12 06:35:43;;;;;;;29.70;20.90;;;;;;;14.98;100.00;101619.31;5018429;28;20127;-68
2023/05/12 06:38:09;;;;;;;29.05;20.17;;;;;;;15.06;100.00;101620.34;5028349;28;20052;-68
2023/05/12 06:40:36;;;;;;;33.05;21.75;;;;;;;15.12;100.00;101615.25;5023371;28;20054;-69
2023/05/12 06:43:02;;;;;;;30.48;18.83;;;;;;;15.15;100.00;101629.97;5026923;28;20057;-71
2023/05/12 06:45:29;;;;;;;31.55;20.42;;;;;;;15.24;100.00;101626.38;5021011;28;20072;-68
2023/05/12 06:47:56;;;;;;;24.90;17.55;;;;;;;15.35;100.00;101635.88;5011863;28;20084;-68
2023/05/12 06:50:23;;;;;;;24.05;16.50;;;;;;;15.43;100.00;101635.91;5035378;28;20803;-68
2023/05/12 06:52:50;;;;;;;27.65;18.58;;;;;;;15.50;100.00;101630.78;5029162;28;20045;-68
2023/05/12 06:55:19;;;;;;;19.80;14.15;;;;;;;15.58;100.00;101641.41;5035549;28;20073;-68
2023/05/12 06:57:46;;;;;;;20.13;14.80;;;;;;;15.60;100.00;101644.72;5032607;28;20421;-68
2023/05/12 07:00:13;;;;;;;22.42;15.38;;;;;;;15.63;100.00;101645.22;5033254;28;20056;-69
2023/05/12 07:02:40;;;;;;;24.45;16.75;;;;;;;15.59;100.00;101648.38;5033848;28;20075;-68
2023/05/12 07:05:06;;;;;;;23.85;17.05;;;;;;;15.61;100.00;101649.84;5028520;28;20049;-68
2023/05/12 07:07:34;;;;;;;20.80;14.50;;;;;;;15.67;100.00;101663.44;5025199;28;20053;-69
2023/05/12 07:10:03;;;;;;;22.65;15.88;;;;;;;15.72;100.00;101656.69;5023026;28;20052;-69
2023/05/12 07:12:31;;;;;;;20.10;14.65;;;;;;;15.81;100.00;101649.63;5030763;28;20049;-69
2023/05/12 07:14:57;;;;;;;19.15;15.35;;;;;;;15.83;100.00;101652.94;5019923;28;20052;-69
2023/05/12 07:17:24;;;;;;;17.60;12.50;;;;;;;15.90;100.00;101651.31;5035347;28;20057;-69
2023/05/12 07:19:51;;;;;;;15.60;11.43;;;;;;;15.93;100.00;101653.63;5040615;28;20079;-69
2023/05/12 07:22:18;;;;;;;14.05;11.10;;;;;;;16.07;100.00;101657.44;5035242;28;20056;-69
2023/05/12 07:24:44;;;;;;;17.52;11.50;;;;;;;16.05;100.00;101648.84;5047062;28;20038;-70
2023/05/12 07:27:11;;;;;;;15.63;10.55;;;;;;;16.14;100.00;101660.31;5039310;28;20049;-69
2023/05/12 07:29:38;;;;;;;14.82;11.20;;;;;;;16.14;100.00;101668.25;5039875;28;20054;-70
2023/05/12 07:32:05;;;;;;;16.25;10.57;;;;;;;16.18;100.00;101661.63;5027139;28;20446;-70
2023/05/12 07:34:32;;;;;;;15.88;11.77;;;;;;;16.21;100.00;101664.78;5037300;28;20123;-70
2023/05/12 07:37:01;;;;;;;17.13;11.93;;;;;;;16.23;100.00;101669.06;5042216;28;20457;-70
2023/05/12 07:39:29;;;;;;;13.85;10.65;;;;;;;16.16;100.00;101653.03;5036234;28;20053;-70
2023/05/12 07:41:56;;;;;;;;;;;;;;;16.23;100.00;101669.06;5038646;28;20490;-70
2023/05/12 07:44:23;;;;;;;16.52;10.40;;;;;;;16.32;100.00;101663.63;5025980;28;20064;-70
2023/05/12 07:46:49;;;;;;;15.65;11.65;;;;;;;16.32;100.00;101668.91;5034968;28;20354;-69
2023/05/12 07:49:16;;;;;;;15.10;10.95;;;;;;;16.38;100.00;101668.25;5029101;28;20348;-70
2023/05/12 07:51:42;;;;;;;14.73;11.20;;;;;;;16.42;100.00;101668.75;5025293;28;20089;-69
2023/05/12 07:54:09;;;;;;;12.48;9.82;;;;;;;16.50;100.00;101665.28;5034992;28;20516;-69
2023/05/12 07:56:36;;;;;;;13.98;9.80;;;;;;;16.53;100.00;101668.44;5022666;28;20060;-70
2023/05/12 07:59:02;;;;;;;13.63;9.65;;;;;;;16.55;100.00;101669.13;5032797;28;20682;-70
2023/05/12 08:01:29;;;;;;;13.18;10.10;;;;;;;16.57;100.00;101672.41;5031042;28;20053;-70
2023/05/12 08:03:55;;;;;;;13.82;8.93;;;;;;;16.68;100.00;101670.44;5038418;28;20049;-70
2023/05/12 08:06:22;;;;;;;11.23;9.00;;;;;;;16.71;100.00;101672.75;5040230;23;20066;-71
2023/05/12 08:08:50;;;;;;;16.58;12.07;;;;;;;16.77;100.00;101675.56;4998141;28;20043;-71
2023/05/12 08:11:16;;;;;;;12.82;10.60;;;;;;;16.85;100.00;101680.06;5004569;28;20442;-73
2023/05/12 08:13:43;;;;;;;11.05;9.32;;;;;;;16.87;100.00;101677.25;5005853;28;20056;-74
2023/05/12 08:16:09;;;;;;;12.35;9.95;;;;;;;16.96;100.00;101681.56;4979788;28;20051;-73
2023/05/12 08:18:37;;;;;;;13.50;9.45;;;;;;;17.16;100.00;101684.66;4982725;28;20058;-72
2023/05/12 08:21:04;;;;;;;12.05;9.00;;;;;;;17.31;100.00;101690.94;4986023;28;20057;-73
2023/05/12 08:23:31;;;;;;;12.88;7.72;;;;;;;17.44;100.00;101692.22;4994710;28;20336;-73
2023/05/12 08:25:57;;;;;;;11.02;8.73;;;;;;;17.57;100.00;101692.50;4976137;28;20428;-74
2023/05/12 08:28:24;;;;;;;10.23;8.48;;;;;;;17.66;100.00;101709.22;5000063;28;20046;-73
2023/05/12 08:30:50;;;;;;;8.98;7.03;;;;;;;17.89;100.00;101699.53;4979123;28;20050;-73
2023/05/12 08:33:17;;;;;;;9.90;7.80;;;;;;;18.14;100.00;101702.88;4985894;28;21420;-72
2023/05/12 08:35:44;;;;;;;8.90;7.30;;;;;;;18.33;100.00;101698.97;4986407;28;20525;-73
2023/05/12 08:38:11;;;;;;;8.73;6.47;;;;;;;18.55;100.00;101697.31;4978955;28;20061;-76
2023/05/12 08:41:03;;;;;;;7.80;6.07;;;;;;;18.60;100.00;101701.25;4982836;28;20526;-74
2023/05/12 08:43:45;;;;;;;8.65;5.65;;;;;;;18.58;100.00;101710.25;4979592;28;20054;-74
2023/05/12 08:46:12;;;;;;;7.47;5.65;;;;;;;18.55;100.00;101712.44;4983947;28;20081;-75
2023/05/12 08:48:39;;;;;;;6.35;4.60;;;;;;;18.51;100.00;101713.78;4980765;28;20046;-73
2023/05/12 08:51:10;;;;;;;5.53;4.70;;;;;;;18.56;100.00;101716.72;4994701;28;20122;-72
2023/05/12 08:53:38;;;;;;;7.18;4.40;;;;;;;18.62;100.00;101716.03;4977009;28;20056;-71
2023/05/12 08:56:06;;;;;;;5.65;4.43;;;;;;;18.74;100.00;101724.41;4978045;28;20078;-73
2023/05/12 08:58:36;;;;;;;6.13;3.70;;;;;;;18.79;100.00;101722.03;4985225;28;20061;-71
2023/05/12 09:01:10;;;;;;;4.90;4.07;;;;;;;18.82;100.00;101720.88;4981245;28;20046;-71
2023/05/12 09:03:37;;;;;;;5.22;3.80;;;;;;;18.83;100.00;101731.31;4986300;28;20046;-72
2023/05/12 09:06:05;;;;;;;4.10;3.67;;;;;;;18.91;100.00;101739.22;4984476;28;20192;-72
2023/05/12 09:08:33;;;;;;;4.18;3.17;;;;;;;19.01;100.00;101735.50;4976041;28;20054;-74
2023/05/12 09:11:00;;;;;;;;;;;;;;;19.08;94.88;101739.09;4974117;28;20058;-71
2023/05/12 09:13:51;;;;;;;5.22;3.42;;;;;;;19.29;98.67;101728.59;4979784;28;20341;-71
2023/05/12 09:16:23;;;;;;;4.10;3.20;;;;;;;19.39;96.21;101736.31;4995172;28;20046;-72
2023/05/12 09:18:54;;;;;;;5.60;2.95;;;;;;;19.43;94.46;101740.25;4982366;28;20046;-72
2023/05/12 09:21:22;;;;;;;4.93;2.58;;;;;;;19.46;95.40;101742.53;5002656;28;20046;-71
2023/05/12 09:24:05;;;;;;;3.03;2.30;;;;;;;19.53;92.66;101745.31;4990594;28;20057;-73
2023/05/12 09:26:45;;;;;;;3.08;2.35;;;;;;;19.68;94.87;101747.94;4977929;28;20046;-71
2023/05/12 09:29:11;;;;;;;4.05;2.42;;;;;;;19.68;93.75;101753.25;4978287;28;20050;-74
2023/05/12 09:31:54;;;;;;;2.47;2.28;;;;;;;19.74;88.99;101747.25;4986483;28;20137;-71
2023/05/12 09:34:29;;;;;;;4.72;2.53;;;;;;;19.70;88.15;101744.09;4989682;28;20046;-72
2023/05/12 09:36:58;;;;;;;2.60;2.20;;;;;;;19.69;86.41;101750.44;4978880;28;20046;-71
2023/05/12 09:39:24;;;;;;;;;;;;;;;19.71;87.29;101756.41;4974944;28;20126;-71
2023/05/12 09:41:51;;;;;;;2.88;2.47;;;;;;;19.65;85.90;101754.47;4982046;28;19926;-71
2023/05/12 09:44:18;;;;;;;4.47;2.53;;;;;;;19.63;86.46;101755.66;4984655;28;20486;-73
2023/05/12 09:46:45;;;;;;;4.40;2.20;;;;;;;19.66;87.40;101760.59;4981497;28;20141;-74
2023/05/12 09:49:11;;;;;;;3.45;2.60;;;;;;;19.69;82.90;101758.41;4988694;28;20054;-76
2023/05/12 09:51:39;;;;;;;2.47;2.22;;;;;;;19.77;87.64;101760.19;4976163;28;20492;-74
2023/05/12 09:54:05;;;;;;;3.25;2.53;;;;;;;19.81;87.74;101750.81;4981239;28;20467;-74
2023/05/12 09:56:36;;;;;;;3.83;2.50;;;;;;;19.91;87.81;101763.84;4982335;28;20054;-72
2023/05/12 09:59:04;;;;;;;3.22;2.58;;;;;;;19.81;82.15;101758.00;4987503;28;20114;-74
2023/05/12 10:01:30;;;;;;;2.92;2.40;;;;;;;19.77;82.96;101751.38;4991371;28;20057;-74
2023/05/12 10:03:58;;;;;;;7.47;5.85;;;;;;;19.79;88.80;101754.69;4988384;28;20444;-71
2023/05/12 10:06:32;;;;;;;5.00;4.00;;;;;;;19.87;85.90;101759.91;4998105;28;21280;-72
2023/05/12 10:09:10;;;;;;;3.55;2.50;;;;;;;19.96;87.30;101772.13;4991619;28;20157;-72
2023/05/12 10:11:37;;;;;;;4.03;2.53;;;;;;;20.04;85.91;101763.19;4992191;28;20076;-75
2023/05/12 10:14:05;;;;;;;3.15;2.45;;;;;;;20.09;84.82;101766.13;4987131;28;20050;-74
2023/05/12 10:16:32;;;;;;;;;;;;;;;20.14;82.84;101772.53;4995535;28;20086;-72
2023/05/12 10:18:59;;;;;;;3.97;2.60;;;;;;;20.11;81.75;101767.59;5001412;28;20441;-73
2023/05/12 10:21:26;;;;;;;3.83;2.40;;;;;;;20.26;84.67;101767.56;4988887;28;20416;-74
2023/05/12 10:23:53;;;;;;;4.60;2.50;;;;;;;20.33;83.95;101759.66;4994286;28;20050;-74
2023/05/12 10:26:20;;;;;;;3.85;2.40;;;;;;;20.37;82.66;101768.91;5002291;28;20058;-71
2023/05/12 10:28:48;;;;;;;3.67;2.75;;;;;;;20.41;77.92;101764.84;4991743;28;20050;-72
2023/05/12 10:31:15;;;;;;;3.00;2.38;;;;;;;20.48;79.10;101756.91;4990366;28;20077;-72
2023/05/12 10:33:42;;;;;;;2.30;2.10;;;;;;;20.60;77.27;101762.59;4986422;28;20066;-74
2023/05/12 10:36:18;;;;;;;3.38;2.03;;;;;;;20.71;72.79;101762.94;4986189;28;20050;-75
2023/05/12 10:38:50;;;;;;;6.63;2.63;;;;;;;20.71;69.95;101762.94;4982529;28;20101;-72
2023/05/12 10:41:31;;;;;;;4.38;2.20;;;;;;;20.94;77.44;101764.56;4994326;28;20062;-73
2023/05/12 10:43:58;;;;;;;4.55;2.40;;;;;;;20.98;72.39;101765.03;4977704;28;20113;-72
2023/05/12 10:46:26;;;;;;;3.90;2.28;;;;;;;21.14;74.13;101768.22;4989320;28;20470;-75
2023/05/12 10:48:58;;;;;;;;;;;;;;;21.30;74.42;101766.28;4981488;28;20061;-73
2023/05/12 10:51:27;;;;;;;4.75;2.67;;;;;;;21.53;72.49;101766.06;4983968;28;19959;-74
2023/05/12 10:54:03;;;;;;;4.47;2.55;;;;;;;21.64;68.92;101760.19;4981918;28;20455;-75
2023/05/12 10:56:42;;;;;;;6.05;2.22;;;;;;;21.81;69.17;101767.84;5003662;28;20406;-72
2023/05/12 10:59:23;;;;;;;2.58;2.35;;;;;;;22.04;71.02;101765.69;4984852;28;20058;-71
2023/05/12 11:01:59;;;;;;;3.38;2.10;;;;;;;22.40;69.78;101764.59;4977004;28;20054;-74
2023/05/12 11:04:50;;;;;;;3.53;2.20;;;;;;;22.71;67.77;101765.88;4985513;28;20050;-74
2023/05/12 11:07:28;;;;;;;4.07;2.63;;;;;;;22.87;63.48;101762.84;4996471;28;20073;-74
2023/05/12 11:09:58;;;;;;;2.57;2.10;;;;;;;23.00;64.40;101756.66;4988098;28;20058;-75
2023/05/12 11:12:32;;;;;;;2.70;2.38;;;;;;;23.22;63.61;101754.59;4972121;28;20292;-73
2023/05/12 11:15:00;;;;;;;3.75;2.40;;;;;;;23.28;65.11;101761.78;4989634;28;20061;-74